FIN446 EFOU-EFHK
Flight info
| Callsign | FIN446 |
|---|---|
| Flight time | 0h 53m |
| Altitude | 37000 |
| Route | MIKNU Y86 LUSEP |
| Aircraft | A320/M-SDE3FGHIRWY/LB1 |
Departure
| Time | 2026-05-04 15:11 |
|---|---|
| Airport | Oulu Airport (EFOU) |
Arrival
| Time | 2026-05-04 16:04 |
|---|---|
| Airport | Helsinki Vantaa Airport (EFHK) |
| Time | Latitude | Longitude | Altitude | Speed | Heading |
|---|---|---|---|---|---|
| 2026-05-04 14:41 | 64.92758 | 25.37545 | 40 ft | 0 kts | 30° |
| 2026-05-04 15:05 | 64.92751 | 25.37535 | 40 ft | 2 kts | 30° |
| 2026-05-04 15:05 | 64.92738 | 25.37517 | 41 ft | 2 kts | 31° |
| 2026-05-04 15:05 | 64.92725 | 25.37499 | 41 ft | 2 kts | 31° |
| 2026-05-04 15:05 | 64.92712 | 25.37480 | 41 ft | 2 kts | 31° |
| 2026-05-04 15:06 | 64.92699 | 25.37463 | 41 ft | 2 kts | 28° |
| 2026-05-04 15:06 | 64.92693 | 25.37438 | 41 ft | 2 kts | 92° |
| 2026-05-04 15:06 | 64.92694 | 25.37419 | 41 ft | 0 kts | 124° |
| 2026-05-04 15:07 | 64.92698 | 25.37407 | 41 ft | 0 kts | 121° |
| 2026-05-04 15:08 | 64.92696 | 25.37418 | 41 ft | 1 kts | 121° |
| 2026-05-04 15:08 | 64.92685 | 25.37457 | 41 ft | 3 kts | 121° |
| 2026-05-04 15:09 | 64.92668 | 25.37525 | 41 ft | 6 kts | 120° |
| 2026-05-04 15:09 | 64.92635 | 25.37655 | 38 ft | 12 kts | 120° |
| 2026-05-04 15:09 | 64.92594 | 25.37825 | 38 ft | 8 kts | 119° |
| 2026-05-04 15:10 | 64.92506 | 25.37900 | 38 ft | 9 kts | 220° |
| 2026-05-04 15:10 | 64.92467 | 25.37767 | 38 ft | 10 kts | 243° |
| 2026-05-04 15:10 | 64.92539 | 25.37296 | 41 ft | 52 kts | 301° |
| 2026-05-04 15:11 | 64.92851 | 25.36064 | 41 ft | 119 kts | 301° |
| 2026-05-04 15:11 | 64.93373 | 25.34080 | 162 ft | 160 kts | 303° |
| 2026-05-04 15:11 | 64.93946 | 25.31869 | 828 ft | 159 kts | 299° |
| 2026-05-04 15:11 | 64.94158 | 25.29381 | 1484 ft | 163 kts | 252° |
| 2026-05-04 15:12 | 64.93449 | 25.27418 | 2072 ft | 170 kts | 205° |
| 2026-05-04 15:12 | 64.92244 | 25.27060 | 2532 ft | 188 kts | 172° |
| 2026-05-04 15:12 | 64.90908 | 25.27602 | 3051 ft | 204 kts | 171° |
| 2026-05-04 15:12 | 64.89449 | 25.28192 | 3504 ft | 226 kts | 171° |
| 2026-05-04 15:13 | 64.87852 | 25.28823 | 4080 ft | 243 kts | 171° |
| 2026-05-04 15:13 | 64.86134 | 25.29475 | 4722 ft | 257 kts | 171° |
| 2026-05-04 15:13 | 64.84376 | 25.30131 | 5625 ft | 260 kts | 171° |
| 2026-05-04 15:13 | 64.82621 | 25.30766 | 6564 ft | 261 kts | 172° |
| 2026-05-04 15:14 | 64.80843 | 25.31400 | 7495 ft | 262 kts | 172° |
| 2026-05-04 15:14 | 64.79047 | 25.32028 | 8347 ft | 266 kts | 173° |
| 2026-05-04 15:14 | 64.77211 | 25.32669 | 9171 ft | 270 kts | 174° |
| 2026-05-04 15:14 | 64.75341 | 25.33318 | 10008 ft | 274 kts | 174° |
| 2026-05-04 15:15 | 64.73449 | 25.33947 | 10562 ft | 286 kts | 175° |
| 2026-05-04 15:15 | 64.71446 | 25.34607 | 11234 ft | 293 kts | 175° |
| 2026-05-04 15:15 | 64.69437 | 25.35282 | 12001 ft | 296 kts | 175° |
| 2026-05-04 15:16 | 64.65340 | 25.36670 | 13408 ft | 304 kts | 175° |
| 2026-05-04 15:16 | 64.63266 | 25.37377 | 14123 ft | 307 kts | 175° |
| 2026-05-04 15:16 | 64.59010 | 25.38820 | 15469 ft | 314 kts | 176° |
| 2026-05-04 15:17 | 64.56855 | 25.39550 | 16149 ft | 316 kts | 176° |
| 2026-05-04 15:17 | 64.52506 | 25.41022 | 17420 ft | 321 kts | 176° |
| 2026-05-04 15:17 | 64.50308 | 25.41764 | 18037 ft | 324 kts | 177° |
| 2026-05-04 15:18 | 64.48085 | 25.42513 | 18644 ft | 326 kts | 177° |
| 2026-05-04 15:18 | 64.45846 | 25.43197 | 19213 ft | 327 kts | 180° |
| 2026-05-04 15:18 | 64.43584 | 25.43558 | 19831 ft | 326 kts | 184° |
| 2026-05-04 15:19 | 64.39099 | 25.43432 | 21009 ft | 327 kts | 187° |
| 2026-05-04 15:19 | 64.36836 | 25.43313 | 21577 ft | 329 kts | 187° |
| 2026-05-04 15:19 | 64.32259 | 25.43071 | 22642 ft | 333 kts | 187° |
| 2026-05-04 15:20 | 64.29933 | 25.42947 | 23172 ft | 335 kts | 187° |
| 2026-05-04 15:20 | 64.27622 | 25.42822 | 23682 ft | 337 kts | 188° |
| 2026-05-04 15:20 | 64.25291 | 25.42699 | 24174 ft | 338 kts | 188° |
| 2026-05-04 15:20 | 64.22945 | 25.42571 | 24670 ft | 340 kts | 188° |
| 2026-05-04 15:21 | 64.20591 | 25.42446 | 25143 ft | 341 kts | 188° |
| 2026-05-04 15:21 | 64.18198 | 25.42316 | 25596 ft | 343 kts | 188° |
| 2026-05-04 15:21 | 64.13419 | 25.42057 | 26468 ft | 347 kts | 188° |
| 2026-05-04 15:22 | 64.11037 | 25.41929 | 26869 ft | 349 kts | 188° |
| 2026-05-04 15:22 | 64.08604 | 25.41797 | 27251 ft | 351 kts | 188° |
| 2026-05-04 15:22 | 64.03745 | 25.41539 | 28036 ft | 354 kts | 188° |
| 2026-05-04 15:23 | 64.01290 | 25.41406 | 28384 ft | 357 kts | 188° |
| 2026-05-04 15:23 | 63.98817 | 25.41276 | 28736 ft | 359 kts | 188° |
| 2026-05-04 15:23 | 63.96296 | 25.41141 | 29076 ft | 361 kts | 188° |
| 2026-05-04 15:23 | 63.93794 | 25.41007 | 29408 ft | 363 kts | 188° |
| 2026-05-04 15:24 | 63.88755 | 25.40742 | 30051 ft | 366 kts | 188° |
| 2026-05-04 15:24 | 63.83686 | 25.40477 | 30696 ft | 370 kts | 188° |
| 2026-05-04 15:25 | 63.81102 | 25.40345 | 31005 ft | 371 kts | 188° |
| 2026-05-04 15:25 | 63.78554 | 25.40216 | 31230 ft | 372 kts | 188° |
| 2026-05-04 15:25 | 63.75969 | 25.40087 | 31417 ft | 375 kts | 188° |
| 2026-05-04 15:26 | 63.70728 | 25.39820 | 31767 ft | 381 kts | 188° |
| 2026-05-04 15:26 | 63.68111 | 25.39681 | 31958 ft | 382 kts | 188° |
| 2026-05-04 15:26 | 63.62780 | 25.39394 | 32321 ft | 387 kts | 188° |
| 2026-05-04 15:27 | 63.60086 | 25.39250 | 32490 ft | 389 kts | 188° |
| 2026-05-04 15:27 | 63.54668 | 25.38967 | 32832 ft | 393 kts | 187° |
| 2026-05-04 15:28 | 63.49240 | 25.38687 | 33151 ft | 396 kts | 187° |
| 2026-05-04 15:28 | 63.46484 | 25.38547 | 33311 ft | 398 kts | 187° |
| 2026-05-04 15:28 | 63.40953 | 25.38267 | 33605 ft | 401 kts | 187° |
| 2026-05-04 15:29 | 63.38168 | 25.38125 | 33768 ft | 403 kts | 187° |
| 2026-05-04 15:30 | 63.26983 | 25.37551 | 34425 ft | 405 kts | 187° |
| 2026-05-04 15:30 | 63.18560 | 25.37123 | 34899 ft | 408 kts | 187° |
| 2026-05-04 15:31 | 63.12867 | 25.36833 | 35142 ft | 410 kts | 187° |
| 2026-05-04 15:31 | 63.10057 | 25.36692 | 35270 ft | 411 kts | 187° |
| 2026-05-04 15:32 | 63.01513 | 25.36261 | 35635 ft | 414 kts | 187° |
| 2026-05-04 15:32 | 62.95745 | 25.35974 | 35843 ft | 416 kts | 187° |
| 2026-05-04 15:33 | 62.89994 | 25.35687 | 35999 ft | 418 kts | 187° |
| 2026-05-04 15:34 | 62.81253 | 25.35253 | 36287 ft | 421 kts | 187° |
| 2026-05-04 15:34 | 62.72503 | 25.34814 | 36541 ft | 424 kts | 187° |
| 2026-05-04 15:35 | 62.63686 | 25.34380 | 36551 ft | 425 kts | 187° |
| 2026-05-04 15:36 | 62.54853 | 25.33942 | 36560 ft | 425 kts | 186° |
| 2026-05-04 15:36 | 62.48961 | 25.33653 | 36571 ft | 425 kts | 187° |
| 2026-05-04 15:37 | 62.43107 | 25.33372 | 36573 ft | 424 kts | 186° |
| 2026-05-04 15:37 | 62.40158 | 25.33232 | 36456 ft | 425 kts | 187° |
| 2026-05-04 15:37 | 62.37229 | 25.33093 | 36253 ft | 422 kts | 187° |
| 2026-05-04 15:38 | 62.34314 | 25.32956 | 36061 ft | 419 kts | 187° |
| 2026-05-04 15:38 | 62.31436 | 25.32821 | 35861 ft | 415 kts | 187° |
| 2026-05-04 15:38 | 62.28593 | 25.32686 | 35660 ft | 412 kts | 187° |
| 2026-05-04 15:38 | 62.25760 | 25.32551 | 35454 ft | 409 kts | 187° |
| 2026-05-04 15:39 | 62.22906 | 25.32416 | 35077 ft | 409 kts | 187° |
| 2026-05-04 15:39 | 62.20105 | 25.32282 | 34564 ft | 408 kts | 187° |
| 2026-05-04 15:39 | 62.14425 | 25.32007 | 33421 ft | 412 kts | 188° |
| 2026-05-04 15:40 | 62.11592 | 25.31868 | 32859 ft | 412 kts | 188° |
| 2026-05-04 15:40 | 62.08775 | 25.31737 | 32380 ft | 407 kts | 187° |
| 2026-05-04 15:40 | 62.05978 | 25.31612 | 31941 ft | 401 kts | 188° |
| 2026-05-04 15:40 | 62.03247 | 25.31484 | 31533 ft | 395 kts | 188° |
| 2026-05-04 15:41 | 62.00517 | 25.31353 | 31107 ft | 389 kts | 188° |
| 2026-05-04 15:41 | 61.97851 | 25.31224 | 30695 ft | 384 kts | 188° |
| 2026-05-04 15:41 | 61.95203 | 25.31102 | 30252 ft | 378 kts | 188° |
| 2026-05-04 15:41 | 61.92604 | 25.30981 | 29832 ft | 371 kts | 188° |
| 2026-05-04 15:42 | 61.90064 | 25.30863 | 29417 ft | 366 kts | 188° |
| 2026-05-04 15:42 | 61.87537 | 25.30743 | 28984 ft | 361 kts | 188° |
| 2026-05-04 15:42 | 61.85045 | 25.30624 | 28548 ft | 357 kts | 188° |
| 2026-05-04 15:42 | 61.82573 | 25.30506 | 28102 ft | 354 kts | 188° |
| 2026-05-04 15:43 | 61.80131 | 25.30391 | 27658 ft | 350 kts | 188° |
| 2026-05-04 15:43 | 61.77737 | 25.30280 | 27220 ft | 347 kts | 188° |
| 2026-05-04 15:43 | 61.75355 | 25.30168 | 26775 ft | 344 kts | 188° |
| 2026-05-04 15:43 | 61.72959 | 25.30057 | 26329 ft | 340 kts | 188° |
| 2026-05-04 15:44 | 61.70614 | 25.29948 | 25890 ft | 337 kts | 188° |
| 2026-05-04 15:44 | 61.68319 | 25.29842 | 25459 ft | 335 kts | 188° |
| 2026-05-04 15:44 | 61.65993 | 25.29735 | 25021 ft | 332 kts | 188° |
| 2026-05-04 15:44 | 61.63687 | 25.29628 | 24584 ft | 330 kts | 188° |
| 2026-05-04 15:45 | 61.61421 | 25.29525 | 24155 ft | 328 kts | 188° |
| 2026-05-04 15:45 | 61.59147 | 25.29418 | 23734 ft | 326 kts | 188° |
| 2026-05-04 15:45 | 61.56891 | 25.29313 | 23314 ft | 323 kts | 188° |
| 2026-05-04 15:45 | 61.54653 | 25.29207 | 22899 ft | 321 kts | 188° |
| 2026-05-04 15:46 | 61.52448 | 25.29105 | 22487 ft | 319 kts | 188° |
| 2026-05-04 15:46 | 61.50246 | 25.29000 | 22075 ft | 317 kts | 188° |
| 2026-05-04 15:46 | 61.48053 | 25.28898 | 21661 ft | 315 kts | 188° |
| 2026-05-04 15:46 | 61.45880 | 25.28796 | 21238 ft | 314 kts | 188° |
| 2026-05-04 15:47 | 61.43709 | 25.28692 | 20819 ft | 313 kts | 188° |
| 2026-05-04 15:47 | 61.41521 | 25.28590 | 20394 ft | 312 kts | 188° |
| 2026-05-04 15:47 | 61.39364 | 25.28489 | 19978 ft | 311 kts | 188° |
| 2026-05-04 15:47 | 61.37226 | 25.28390 | 19558 ft | 310 kts | 188° |
| 2026-05-04 15:48 | 61.35077 | 25.28289 | 19132 ft | 309 kts | 188° |
| 2026-05-04 15:48 | 61.32916 | 25.28189 | 18699 ft | 309 kts | 188° |
| 2026-05-04 15:48 | 61.28634 | 25.27991 | 17851 ft | 308 kts | 188° |
| 2026-05-04 15:49 | 61.26492 | 25.27895 | 17444 ft | 307 kts | 188° |
| 2026-05-04 15:49 | 61.24396 | 25.27799 | 17046 ft | 307 kts | 188° |
| 2026-05-04 15:49 | 61.22269 | 25.27702 | 16638 ft | 306 kts | 187° |
| 2026-05-04 15:49 | 61.20134 | 25.27604 | 16225 ft | 306 kts | 187° |
| 2026-05-04 15:50 | 61.18040 | 25.27511 | 15822 ft | 305 kts | 187° |
| 2026-05-04 15:50 | 61.15916 | 25.27416 | 15408 ft | 305 kts | 187° |
| 2026-05-04 15:50 | 61.13827 | 25.27322 | 14998 ft | 305 kts | 187° |
| 2026-05-04 15:50 | 61.11715 | 25.27228 | 14581 ft | 305 kts | 187° |
| 2026-05-04 15:51 | 61.09600 | 25.27134 | 14169 ft | 304 kts | 187° |
| 2026-05-04 15:51 | 61.07506 | 25.27041 | 13763 ft | 303 kts | 187° |
| 2026-05-04 15:51 | 61.05396 | 25.26943 | 13351 ft | 302 kts | 187° |
| 2026-05-04 15:51 | 61.03319 | 25.26850 | 12954 ft | 302 kts | 187° |
| 2026-05-04 15:52 | 61.01216 | 25.26752 | 12536 ft | 303 kts | 187° |
| 2026-05-04 15:52 | 60.99127 | 25.26657 | 12120 ft | 302 kts | 187° |
| 2026-05-04 15:52 | 60.97041 | 25.26568 | 11705 ft | 302 kts | 187° |
| 2026-05-04 15:52 | 60.94964 | 25.26512 | 11296 ft | 302 kts | 185° |
| 2026-05-04 15:53 | 60.92875 | 25.26638 | 10892 ft | 301 kts | 184° |
| 2026-05-04 15:53 | 60.90776 | 25.26774 | 10482 ft | 300 kts | 184° |
| 2026-05-04 15:53 | 60.88717 | 25.26908 | 10085 ft | 299 kts | 184° |
| 2026-05-04 15:53 | 60.86663 | 25.27044 | 9756 ft | 295 kts | 184° |
| 2026-05-04 15:54 | 60.84644 | 25.27181 | 9611 ft | 283 kts | 184° |
| 2026-05-04 15:54 | 60.82689 | 25.27312 | 9307 ft | 280 kts | 184° |
| 2026-05-04 15:54 | 60.80765 | 25.27426 | 8947 ft | 278 kts | 184° |
| 2026-05-04 15:54 | 60.78838 | 25.27564 | 8603 ft | 277 kts | 183° |
| 2026-05-04 15:55 | 60.76944 | 25.27725 | 8267 ft | 275 kts | 183° |
| 2026-05-04 15:55 | 60.75038 | 25.27847 | 7893 ft | 275 kts | 183° |
| 2026-05-04 15:55 | 60.73124 | 25.27963 | 7508 ft | 274 kts | 183° |
| 2026-05-04 15:55 | 60.71238 | 25.28070 | 7131 ft | 274 kts | 184° |
| 2026-05-04 15:56 | 60.69412 | 25.27470 | 6741 ft | 263 kts | 209° |
| 2026-05-04 15:56 | 60.67996 | 25.25283 | 6386 ft | 253 kts | 234° |
| 2026-05-04 15:56 | 60.66946 | 25.22468 | 6057 ft | 251 kts | 236° |
| 2026-05-04 15:56 | 60.65892 | 25.19660 | 5716 ft | 250 kts | 235° |
| 2026-05-04 15:57 | 60.64818 | 25.16826 | 5358 ft | 253 kts | 235° |
| 2026-05-04 15:57 | 60.63739 | 25.14027 | 5106 ft | 255 kts | 234° |
| 2026-05-04 15:57 | 60.62637 | 25.11184 | 4841 ft | 254 kts | 234° |
| 2026-05-04 15:57 | 60.61528 | 25.08400 | 4562 ft | 255 kts | 231° |
| 2026-05-04 15:58 | 60.60263 | 25.05882 | 4291 ft | 256 kts | 223° |
| 2026-05-04 15:58 | 60.58856 | 25.03664 | 4036 ft | 256 kts | 220° |
| 2026-05-04 15:58 | 60.57422 | 25.01476 | 3773 ft | 255 kts | 220° |
| 2026-05-04 15:58 | 60.56024 | 24.99356 | 3500 ft | 250 kts | 220° |
| 2026-05-04 15:59 | 60.54631 | 24.97293 | 3281 ft | 244 kts | 219° |
| 2026-05-04 15:59 | 60.53291 | 24.95266 | 3058 ft | 238 kts | 220° |
| 2026-05-04 15:59 | 60.51989 | 24.93267 | 2845 ft | 231 kts | 220° |
| 2026-05-04 15:59 | 60.50719 | 24.91301 | 2643 ft | 226 kts | 221° |
| 2026-05-04 16:00 | 60.49492 | 24.89412 | 2436 ft | 221 kts | 220° |
| 2026-05-04 16:00 | 60.48283 | 24.87555 | 2264 ft | 214 kts | 220° |
| 2026-05-04 16:00 | 60.47112 | 24.85782 | 2117 ft | 206 kts | 220° |
| 2026-05-04 16:00 | 60.45985 | 24.84105 | 1950 ft | 199 kts | 215° |
| 2026-05-04 16:01 | 60.44693 | 24.83454 | 1913 ft | 197 kts | 170° |
| 2026-05-04 16:01 | 60.43533 | 24.84790 | 2092 ft | 184 kts | 144° |
| 2026-05-04 16:01 | 60.42577 | 24.86318 | 2025 ft | 169 kts | 147° |
| 2026-05-04 16:01 | 60.41633 | 24.87509 | 1926 ft | 156 kts | 156° |
| 2026-05-04 16:02 | 60.40687 | 24.88467 | 1793 ft | 150 kts | 156° |
| 2026-05-04 16:02 | 60.39757 | 24.89415 | 1712 ft | 149 kts | 158° |
| 2026-05-04 16:02 | 60.37942 | 24.91406 | 1352 ft | 148 kts | 154° |
| 2026-05-04 16:03 | 60.37027 | 24.92350 | 1181 ft | 146 kts | 157° |
| 2026-05-04 16:03 | 60.36118 | 24.93278 | 967 ft | 144 kts | 156° |
| 2026-05-04 16:03 | 60.35234 | 24.94200 | 771 ft | 144 kts | 156° |
| 2026-05-04 16:03 | 60.34345 | 24.95115 | 545 ft | 142 kts | 156° |
| 2026-05-04 16:04 | 60.33466 | 24.96007 | 324 ft | 141 kts | 156° |
| 2026-05-04 16:04 | 60.31842 | 24.97657 | 186 ft | 93 kts | 151° |
| 2026-05-04 16:04 | 60.31535 | 24.97992 | 183 ft | 17 kts | 158° |
| 2026-05-04 16:05 | 60.31432 | 24.97930 | 185 ft | 10 kts | 232° |
| 2026-05-04 16:05 | 60.31408 | 24.97805 | 185 ft | 9 kts | 272° |
| 2026-05-04 16:05 | 60.31535 | 24.97641 | 187 ft | 12 kts | 333° |
| 2026-05-04 16:06 | 60.31617 | 24.97557 | 189 ft | 13 kts | 332° |
| 2026-05-04 16:06 | 60.31895 | 24.97266 | 187 ft | 21 kts | 334° |
| 2026-05-04 16:07 | 60.32088 | 24.97067 | 180 ft | 25 kts | 331° |
| 2026-05-04 16:07 | 60.32270 | 24.96710 | 177 ft | 10 kts | 228° |
| 2026-05-04 16:08 | 60.32226 | 24.96613 | 181 ft | 7 kts | 228° |
| 2026-05-04 16:08 | 60.32099 | 24.96326 | 185 ft | 11 kts | 227° |
| 2026-05-04 16:09 | 60.31974 | 24.96054 | 183 ft | 3 kts | 228° |
| 2026-05-04 16:09 | 60.31892 | 24.96091 | 181 ft | 10 kts | 137° |
| 2026-05-04 16:10 | 60.31770 | 24.96007 | 177 ft | 8 kts | 187° |
| 2026-05-04 16:11 | 60.31707 | 24.96109 | 179 ft | 2 kts | 128° |
| 2026-05-04 16:11 | 60.31701 | 24.96126 | 179 ft | 0 kts | 128° |